sensor_id;sensor_type;location;lat;lon;timestamp;P1;durP1;ratioP1;P2;durP2;ratioP2
68942;SDS011;60852;52.190;4.422;2023-07-13T00:02:07;2.54;;;1.84;;
68942;SDS011;60852;52.190;4.422;2023-07-13T00:04:34;2.72;;;1.99;;
68942;SDS011;60852;52.190;4.422;2023-07-13T00:06:59;2.67;;;1.98;;
68942;SDS011;60852;52.190;4.422;2023-07-13T00:09:25;2.51;;;1.85;;
68942;SDS011;60852;52.190;4.422;2023-07-13T00:11:56;2.91;;;2.13;;
68942;SDS011;60852;52.190;4.422;2023-07-13T00:14:23;2.84;;;2.05;;
68942;SDS011;60852;52.190;4.422;2023-07-13T00:16:50;3.15;;;2.32;;
68942;SDS011;60852;52.190;4.422;2023-07-13T00:19:16;2.96;;;2.20;;
68942;SDS011;60852;52.190;4.422;2023-07-13T00:21:42;2.74;;;2.02;;
68942;SDS011;60852;52.190;4.422;2023-07-13T00:24:08;2.87;;;2.15;;
68942;SDS011;60852;52.190;4.422;2023-07-13T00:26:41;3.36;;;2.51;;
68942;SDS011;60852;52.190;4.422;2023-07-13T00:29:11;3.41;;;2.57;;
68942;SDS011;60852;52.190;4.422;2023-07-13T00:31:37;3.26;;;2.47;;
68942;SDS011;60852;52.190;4.422;2023-07-13T00:34:03;3.59;;;2.73;;
68942;SDS011;60852;52.190;4.422;2023-07-13T00:36:29;3.44;;;2.64;;
68942;SDS011;60852;52.190;4.422;2023-07-13T00:38:56;3.01;;;2.38;;
68942;SDS011;60852;52.190;4.422;2023-07-13T00:41:21;3.13;;;2.45;;
68942;SDS011;60852;52.190;4.422;2023-07-13T00:43:47;2.86;;;2.24;;
68942;SDS011;60852;52.190;4.422;2023-07-13T00:48:49;2.71;;;2.19;;
68942;SDS011;60852;52.190;4.422;2023-07-13T00:51:31;2.91;;;2.31;;
68942;SDS011;60852;52.190;4.422;2023-07-13T00:54:04;2.96;;;2.35;;
68942;SDS011;60852;52.190;4.422;2023-07-13T00:56:34;3.40;;;2.72;;
68942;SDS011;60852;52.190;4.422;2023-07-13T00:59:03;2.76;;;2.24;;
68942;SDS011;60852;52.190;4.422;2023-07-13T01:01:31;3.04;;;2.45;;
68942;SDS011;60852;52.190;4.422;2023-07-13T01:03:57;3.29;;;2.58;;
68942;SDS011;60852;52.190;4.422;2023-07-13T01:06:22;3.08;;;2.48;;
68942;SDS011;60852;52.190;4.422;2023-07-13T01:08:48;3.05;;;2.53;;
68942;SDS011;60852;52.190;4.422;2023-07-13T01:11:18;2.52;;;2.06;;
68942;SDS011;60852;52.190;4.422;2023-07-13T01:13:46;2.63;;;2.15;;
68942;SDS011;60852;52.190;4.422;2023-07-13T01:16:14;2.34;;;1.90;;
68942;SDS011;60852;52.190;4.422;2023-07-13T01:18:44;2.05;;;1.71;;
68942;SDS011;60852;52.190;4.422;2023-07-13T01:21:09;2.01;;;1.73;;
68942;SDS011;60852;52.190;4.422;2023-07-13T01:23:35;2.06;;;1.82;;
68942;SDS011;60852;52.190;4.422;2023-07-13T01:26:00;2.08;;;1.81;;
68942;SDS011;60852;52.190;4.422;2023-07-13T01:28:26;1.93;;;1.66;;
68942;SDS011;60852;52.190;4.422;2023-07-13T01:30:54;1.96;;;1.68;;
68942;SDS011;60852;52.190;4.422;2023-07-13T01:33:21;2.13;;;1.79;;
68942;SDS011;60852;52.190;4.422;2023-07-13T01:35:47;2.31;;;1.88;;
68942;SDS011;60852;52.190;4.422;2023-07-13T01:38:18;2.07;;;1.69;;
68942;SDS011;60852;52.190;4.422;2023-07-13T01:40:46;2.60;;;2.08;;
68942;SDS011;60852;52.190;4.422;2023-07-13T01:43:11;3.13;;;2.48;;
68942;SDS011;60852;52.190;4.422;2023-07-13T01:45:38;3.04;;;2.38;;
68942;SDS011;60852;52.190;4.422;2023-07-13T01:48:03;2.54;;;2.03;;
68942;SDS011;60852;52.190;4.422;2023-07-13T01:50:32;2.63;;;2.15;;
68942;SDS011;60852;52.190;4.422;2023-07-13T01:52:58;2.74;;;2.26;;
68942;SDS011;60852;52.190;4.422;2023-07-13T01:55:23;2.94;;;2.41;;
68942;SDS011;60852;52.190;4.422;2023-07-13T01:57:49;2.76;;;2.27;;
68942;SDS011;60852;52.190;4.422;2023-07-13T02:00:15;2.76;;;2.27;;
68942;SDS011;60852;52.190;4.422;2023-07-13T02:02:40;2.69;;;2.25;;
68942;SDS011;60852;52.190;4.422;2023-07-13T02:05:06;2.55;;;2.12;;
68942;SDS011;60852;52.190;4.422;2023-07-13T02:07:32;2.67;;;2.21;;
68942;SDS011;60852;52.190;4.422;2023-07-13T02:09:58;2.74;;;2.27;;
68942;SDS011;60852;52.190;4.422;2023-07-13T02:12:23;2.68;;;2.25;;
68942;SDS011;60852;52.190;4.422;2023-07-13T02:14:49;2.75;;;2.35;;
68942;SDS011;60852;52.190;4.422;2023-07-13T02:17:15;2.91;;;2.48;;
68942;SDS011;60852;52.190;4.422;2023-07-13T02:19:40;2.94;;;2.48;;
68942;SDS011;60852;52.190;4.422;2023-07-13T02:22:06;3.17;;;2.63;;
68942;SDS011;60852;52.190;4.422;2023-07-13T02:24:31;3.34;;;2.67;;
68942;SDS011;60852;52.190;4.422;2023-07-13T02:26:57;3.17;;;2.52;;
68942;SDS011;60852;52.190;4.422;2023-07-13T02:29:22;4.23;;;3.41;;
68942;SDS011;60852;52.190;4.422;2023-07-13T02:31:48;3.56;;;2.91;;
68942;SDS011;60852;52.190;4.422;2023-07-13T02:34:14;3.51;;;2.89;;
68942;SDS011;60852;52.190;4.422;2023-07-13T02:36:39;3.54;;;2.97;;
68942;SDS011;60852;52.190;4.422;2023-07-13T02:39:05;3.33;;;2.79;;
68942;SDS011;60852;52.190;4.422;2023-07-13T02:41:31;3.33;;;2.83;;
68942;SDS011;60852;52.190;4.422;2023-07-13T02:43:57;3.49;;;2.95;;
68942;SDS011;60852;52.190;4.422;2023-07-13T02:46:31;3.91;;;3.28;;
68942;SDS011;60852;52.190;4.422;2023-07-13T02:48:59;3.84;;;3.22;;
68942;SDS011;60852;52.190;4.422;2023-07-13T02:51:25;4.14;;;3.41;;
68942;SDS011;60852;52.190;4.422;2023-07-13T02:53:51;4.23;;;3.39;;
68942;SDS011;60852;52.190;4.422;2023-07-13T02:56:18;4.20;;;3.42;;
68942;SDS011;60852;52.190;4.422;2023-07-13T02:58:47;4.18;;;3.41;;
68942;SDS011;60852;52.190;4.422;2023-07-13T03:01:13;4.19;;;3.41;;
68942;SDS011;60852;52.190;4.422;2023-07-13T03:03:44;4.11;;;3.37;;
68942;SDS011;60852;52.190;4.422;2023-07-13T03:06:12;4.33;;;3.49;;
68942;SDS011;60852;52.190;4.422;2023-07-13T03:08:39;3.99;;;3.25;;
68942;SDS011;60852;52.190;4.422;2023-07-13T03:11:15;4.62;;;3.77;;
68942;SDS011;60852;52.190;4.422;2023-07-13T03:13:43;4.44;;;3.61;;
68942;SDS011;60852;52.190;4.422;2023-07-13T03:16:09;4.55;;;3.72;;
68942;SDS011;60852;52.190;4.422;2023-07-13T03:18:36;4.75;;;3.81;;
68942;SDS011;60852;52.190;4.422;2023-07-13T03:21:02;5.18;;;4.09;;
68942;SDS011;60852;52.190;4.422;2023-07-13T03:23:29;4.64;;;3.82;;
68942;SDS011;60852;52.190;4.422;2023-07-13T03:26:02;4.82;;;3.99;;
68942;SDS011;60852;52.190;4.422;2023-07-13T03:28:31;4.56;;;3.71;;
68942;SDS011;60852;52.190;4.422;2023-07-13T03:31:07;4.97;;;4.06;;
68942;SDS011;60852;52.190;4.422;2023-07-13T03:33:41;5.08;;;4.06;;
68942;SDS011;60852;52.190;4.422;2023-07-13T03:36:07;4.35;;;3.58;;
68942;SDS011;60852;52.190;4.422;2023-07-13T03:38:36;4.75;;;3.89;;
68942;SDS011;60852;52.190;4.422;2023-07-13T03:41:01;5.10;;;4.09;;
68942;SDS011;60852;52.190;4.422;2023-07-13T03:43:27;5.69;;;4.43;;
68942;SDS011;60852;52.190;4.422;2023-07-13T03:45:52;5.32;;;4.21;;
68942;SDS011;60852;52.190;4.422;2023-07-13T03:48:18;5.15;;;4.15;;
68942;SDS011;60852;52.190;4.422;2023-07-13T03:50:43;5.02;;;4.06;;
68942;SDS011;60852;52.190;4.422;2023-07-13T03:53:09;5.41;;;4.35;;
68942;SDS011;60852;52.190;4.422;2023-07-13T03:55:34;4.83;;;3.99;;
68942;SDS011;60852;52.190;4.422;2023-07-13T04:00:54;4.51;;;3.84;;
68942;SDS011;60852;52.190;4.422;2023-07-13T04:03:20;4.91;;;4.10;;
68942;SDS011;60852;52.190;4.422;2023-07-13T04:05:46;5.05;;;4.20;;
68942;SDS011;60852;52.190;4.422;2023-07-13T04:08:12;4.35;;;3.66;;
68942;SDS011;60852;52.190;4.422;2023-07-13T04:10:38;4.46;;;3.82;;
68942;SDS011;60852;52.190;4.422;2023-07-13T04:13:04;4.58;;;3.90;;
68942;SDS011;60852;52.190;4.422;2023-07-13T04:15:30;4.75;;;3.94;;
68942;SDS011;60852;52.190;4.422;2023-07-13T04:17:57;5.04;;;4.12;;
68942;SDS011;60852;52.190;4.422;2023-07-13T04:20:24;4.61;;;3.82;;
68942;SDS011;60852;52.190;4.422;2023-07-13T04:22:50;4.82;;;3.98;;
68942;SDS011;60852;52.190;4.422;2023-07-13T04:25:18;4.59;;;3.85;;
68942;SDS011;60852;52.190;4.422;2023-07-13T04:27:43;4.29;;;3.68;;
68942;SDS011;60852;52.190;4.422;2023-07-13T04:30:09;4.20;;;3.68;;
68942;SDS011;60852;52.190;4.422;2023-07-13T04:32:35;3.81;;;3.35;;
68942;SDS011;60852;52.190;4.422;2023-07-13T04:35:00;4.27;;;3.73;;
68942;SDS011;60852;52.190;4.422;2023-07-13T04:37:26;4.51;;;3.86;;
68942;SDS011;60852;52.190;4.422;2023-07-13T04:39:52;4.56;;;4.00;;
68942;SDS011;60852;52.190;4.422;2023-07-13T04:42:18;4.01;;;3.51;;
68942;SDS011;60852;52.190;4.422;2023-07-13T04:44:47;4.00;;;3.52;;
68942;SDS011;60852;52.190;4.422;2023-07-13T04:47:14;4.47;;;3.87;;
68942;SDS011;60852;52.190;4.422;2023-07-13T04:49:39;4.18;;;3.63;;
68942;SDS011;60852;52.190;4.422;2023-07-13T04:52:05;3.58;;;3.27;;
68942;SDS011;60852;52.190;4.422;2023-07-13T04:54:32;3.86;;;3.59;;
68942;SDS011;60852;52.190;4.422;2023-07-13T04:56:59;3.57;;;3.29;;
68942;SDS011;60852;52.190;4.422;2023-07-13T04:59:24;3.57;;;3.31;;
68942;SDS011;60852;52.190;4.422;2023-07-13T05:01:50;4.00;;;3.73;;
68942;SDS011;60852;52.190;4.422;2023-07-13T05:04:16;3.77;;;3.54;;
68942;SDS011;60852;52.190;4.422;2023-07-13T05:06:42;3.67;;;3.42;;
68942;SDS011;60852;52.190;4.422;2023-07-13T05:09:08;3.86;;;3.52;;
68942;SDS011;60852;52.190;4.422;2023-07-13T05:11:34;3.57;;;3.29;;
68942;SDS011;60852;52.190;4.422;2023-07-13T05:13:59;3.66;;;3.44;;
68942;SDS011;60852;52.190;4.422;2023-07-13T05:16:26;3.53;;;3.32;;
68942;SDS011;60852;52.190;4.422;2023-07-13T05:18:53;3.46;;;3.25;;
68942;SDS011;60852;52.190;4.422;2023-07-13T05:21:19;3.38;;;3.19;;
68942;SDS011;60852;52.190;4.422;2023-07-13T05:23:45;3.76;;;3.53;;
68942;SDS011;60852;52.190;4.422;2023-07-13T05:26:11;3.59;;;3.37;;
68942;SDS011;60852;52.190;4.422;2023-07-13T05:28:36;3.61;;;3.34;;
68942;SDS011;60852;52.190;4.422;2023-07-13T05:31:03;4.06;;;3.77;;
68942;SDS011;60852;52.190;4.422;2023-07-13T05:33:29;3.37;;;3.12;;
68942;SDS011;60852;52.190;4.422;2023-07-13T05:35:55;3.48;;;3.24;;
68942;SDS011;60852;52.190;4.422;2023-07-13T05:38:21;3.38;;;3.24;;
68942;SDS011;60852;52.190;4.422;2023-07-13T05:40:47;2.98;;;2.89;;
68942;SDS011;60852;52.190;4.422;2023-07-13T05:43:13;3.10;;;3.02;;
68942;SDS011;60852;52.190;4.422;2023-07-13T05:45:39;3.42;;;3.27;;
68942;SDS011;60852;52.190;4.422;2023-07-13T05:48:05;3.32;;;3.13;;
68942;SDS011;60852;52.190;4.422;2023-07-13T05:50:31;3.76;;;3.52;;
68942;SDS011;60852;52.190;4.422;2023-07-13T05:52:57;3.56;;;3.30;;
68942;SDS011;60852;52.190;4.422;2023-07-13T05:55:22;3.42;;;3.18;;
68942;SDS011;60852;52.190;4.422;2023-07-13T05:57:48;3.41;;;3.20;;
68942;SDS011;60852;52.190;4.422;2023-07-13T06:00:14;3.53;;;3.29;;
68942;SDS011;60852;52.190;4.422;2023-07-13T06:02:40;3.31;;;3.11;;
68942;SDS011;60852;52.190;4.422;2023-07-13T06:05:06;3.41;;;3.20;;
68942;SDS011;60852;52.190;4.422;2023-07-13T06:07:32;3.57;;;3.33;;
68942;SDS011;60852;52.190;4.422;2023-07-13T06:09:57;3.32;;;3.13;;
68942;SDS011;60852;52.190;4.422;2023-07-13T06:12:24;3.14;;;3.00;;
68942;SDS011;60852;52.190;4.422;2023-07-13T06:14:50;3.18;;;3.03;;
68942;SDS011;60852;52.190;4.422;2023-07-13T06:17:16;3.30;;;3.12;;
68942;SDS011;60852;52.190;4.422;2023-07-13T06:19:41;3.11;;;2.93;;
68942;SDS011;60852;52.190;4.422;2023-07-13T06:22:07;3.23;;;3.04;;
68942;SDS011;60852;52.190;4.422;2023-07-13T06:24:33;3.69;;;3.43;;
68942;SDS011;60852;52.190;4.422;2023-07-13T06:26:58;3.36;;;3.12;;
68942;SDS011;60852;52.190;4.422;2023-07-13T06:29:24;3.18;;;2.95;;
68942;SDS011;60852;52.190;4.422;2023-07-13T06:31:49;2.98;;;2.75;;
68942;SDS011;60852;52.190;4.422;2023-07-13T06:34:15;3.19;;;2.95;;
68942;SDS011;60852;52.190;4.422;2023-07-13T06:36:41;3.24;;;3.02;;
68942;SDS011;60852;52.190;4.422;2023-07-13T06:39:06;3.46;;;3.25;;
68942;SDS011;60852;52.190;4.422;2023-07-13T06:41:32;3.40;;;3.24;;
68942;SDS011;60852;52.190;4.422;2023-07-13T06:43:58;2.97;;;2.86;;
68942;SDS011;60852;52.190;4.422;2023-07-13T06:46:24;2.76;;;2.67;;
68942;SDS011;60852;52.190;4.422;2023-07-13T06:48:50;2.96;;;2.84;;
68942;SDS011;60852;52.190;4.422;2023-07-13T06:51:15;2.97;;;2.83;;
68942;SDS011;60852;52.190;4.422;2023-07-13T06:53:41;3.03;;;2.87;;
68942;SDS011;60852;52.190;4.422;2023-07-13T06:56:08;3.31;;;3.13;;
68942;SDS011;60852;52.190;4.422;2023-07-13T06:58:35;3.10;;;2.94;;
68942;SDS011;60852;52.190;4.422;2023-07-13T07:01:02;3.43;;;3.21;;
68942;SDS011;60852;52.190;4.422;2023-07-13T07:03:28;3.11;;;2.95;;
68942;SDS011;60852;52.190;4.422;2023-07-13T07:05:54;3.59;;;3.38;;
68942;SDS011;60852;52.190;4.422;2023-07-13T07:08:24;3.11;;;2.89;;
68942;SDS011;60852;52.190;4.422;2023-07-13T07:10:50;3.06;;;2.88;;
68942;SDS011;60852;52.190;4.422;2023-07-13T07:13:19;3.11;;;2.94;;
68942;SDS011;60852;52.190;4.422;2023-07-13T07:15:45;3.23;;;3.05;;
68942;SDS011;60852;52.190;4.422;2023-07-13T07:18:10;3.16;;;3.00;;
68942;SDS011;60852;52.190;4.422;2023-07-13T07:20:36;3.32;;;3.17;;
68942;SDS011;60852;52.190;4.422;2023-07-13T07:23:02;3.44;;;3.28;;
68942;SDS011;60852;52.190;4.422;2023-07-13T07:25:27;3.40;;;3.27;;
68942;SDS011;60852;52.190;4.422;2023-07-13T07:27:57;3.24;;;3.09;;
68942;SDS011;60852;52.190;4.422;2023-07-13T07:30:23;3.24;;;3.06;;
68942;SDS011;60852;52.190;4.422;2023-07-13T07:32:48;3.21;;;3.04;;
68942;SDS011;60852;52.190;4.422;2023-07-13T07:35:14;3.09;;;2.94;;
68942;SDS011;60852;52.190;4.422;2023-07-13T07:37:39;3.59;;;3.42;;
68942;SDS011;60852;52.190;4.422;2023-07-13T07:40:05;3.27;;;3.13;;
68942;SDS011;60852;52.190;4.422;2023-07-13T07:42:31;3.51;;;3.35;;
68942;SDS011;60852;52.190;4.422;2023-07-13T07:44:57;3.27;;;3.13;;
68942;SDS011;60852;52.190;4.422;2023-07-13T07:47:23;3.22;;;3.10;;
68942;SDS011;60852;52.190;4.422;2023-07-13T07:49:49;3.45;;;3.28;;
68942;SDS011;60852;52.190;4.422;2023-07-13T07:52:14;3.43;;;3.31;;
68942;SDS011;60852;52.190;4.422;2023-07-13T07:54:40;3.43;;;3.31;;
68942;SDS011;60852;52.190;4.422;2023-07-13T07:57:05;3.56;;;3.41;;
68942;SDS011;60852;52.190;4.422;2023-07-13T07:59:31;3.37;;;3.23;;
68942;SDS011;60852;52.190;4.422;2023-07-13T08:01:57;3.58;;;3.44;;
68942;SDS011;60852;52.190;4.422;2023-07-13T08:04:22;3.69;;;3.51;;
68942;SDS011;60852;52.190;4.422;2023-07-13T08:06:48;3.79;;;3.59;;
68942;SDS011;60852;52.190;4.422;2023-07-13T08:09:14;3.63;;;3.48;;
68942;SDS011;60852;52.190;4.422;2023-07-13T08:11:39;3.40;;;3.29;;
68942;SDS011;60852;52.190;4.422;2023-07-13T08:14:05;3.48;;;3.33;;
68942;SDS011;60852;52.190;4.422;2023-07-13T08:16:30;3.68;;;3.52;;
68942;SDS011;60852;52.190;4.422;2023-07-13T08:18:57;3.31;;;3.21;;
68942;SDS011;60852;52.190;4.422;2023-07-13T08:21:23;3.73;;;3.57;;
68942;SDS011;60852;52.190;4.422;2023-07-13T08:23:49;3.84;;;3.64;;
68942;SDS011;60852;52.190;4.422;2023-07-13T08:26:14;3.68;;;3.41;;
68942;SDS011;60852;52.190;4.422;2023-07-13T08:28:40;3.89;;;3.61;;
68942;SDS011;60852;52.190;4.422;2023-07-13T08:31:06;3.86;;;3.65;;
68942;SDS011;60852;52.190;4.422;2023-07-13T08:33:33;3.93;;;3.76;;
68942;SDS011;60852;52.190;4.422;2023-07-13T08:36:00;3.65;;;3.48;;
68942;SDS011;60852;52.190;4.422;2023-07-13T08:38:26;4.02;;;3.83;;
68942;SDS011;60852;52.190;4.422;2023-07-13T08:40:52;4.27;;;4.04;;
68942;SDS011;60852;52.190;4.422;2023-07-13T08:43:26;3.95;;;3.73;;
68942;SDS011;60852;52.190;4.422;2023-07-13T08:48:31;4.09;;;3.83;;
68942;SDS011;60852;52.190;4.422;2023-07-13T08:51:04;3.67;;;3.53;;
68942;SDS011;60852;52.190;4.422;2023-07-13T08:53:47;3.45;;;3.36;;
68942;SDS011;60852;52.190;4.422;2023-07-13T08:56:36;3.24;;;3.22;;
68942;SDS011;60852;52.190;4.422;2023-07-13T08:59:03;3.54;;;3.49;;
68942;SDS011;60852;52.190;4.422;2023-07-13T09:04:34;3.72;;;3.66;;
68942;SDS011;60852;52.190;4.422;2023-07-13T09:07:07;3.59;;;3.55;;
68942;SDS011;60852;52.190;4.422;2023-07-13T09:12:19;3.69;;;3.67;;
68942;SDS011;60852;52.190;4.422;2023-07-13T09:14:51;3.73;;;3.66;;
68942;SDS011;60852;52.190;4.422;2023-07-13T09:17:23;4.16;;;4.03;;
68942;SDS011;60852;52.190;4.422;2023-07-13T09:19:54;3.91;;;3.91;;
68942;SDS011;60852;52.190;4.422;2023-07-13T09:22:26;3.56;;;3.56;;
68942;SDS011;60852;52.190;4.422;2023-07-13T09:25:02;3.54;;;3.52;;
68942;SDS011;60852;52.190;4.422;2023-07-13T09:27:40;3.82;;;3.69;;
68942;SDS011;60852;52.190;4.422;2023-07-13T09:32:41;3.86;;;3.77;;
68942;SDS011;60852;52.190;4.422;2023-07-13T09:35:15;3.63;;;3.51;;
68942;SDS011;60852;52.190;4.422;2023-07-13T09:37:44;3.71;;;3.61;;
68942;SDS011;60852;52.190;4.422;2023-07-13T09:40:21;3.90;;;3.79;;
68942;SDS011;60852;52.190;4.422;2023-07-13T09:42:53;4.16;;;4.00;;
68942;SDS011;60852;52.190;4.422;2023-07-13T09:45:28;3.88;;;3.76;;
68942;SDS011;60852;52.190;4.422;2023-07-13T09:48:05;4.03;;;3.91;;
68942;SDS011;60852;52.190;4.422;2023-07-13T09:50:35;4.00;;;3.98;;
68942;SDS011;60852;52.190;4.422;2023-07-13T09:53:01;3.77;;;3.74;;
68942;SDS011;60852;52.190;4.422;2023-07-13T09:55:32;4.01;;;4.00;;
68942;SDS011;60852;52.190;4.422;2023-07-13T09:58:09;4.15;;;4.15;;
68942;SDS011;60852;52.190;4.422;2023-07-13T10:01:21;4.24;;;4.20;;
68942;SDS011;60852;52.190;4.422;2023-07-13T10:03:42;3.78;;;3.70;;
68942;SDS011;60852;52.190;4.422;2023-07-13T10:06:19;3.97;;;3.87;;
68942;SDS011;60852;52.190;4.422;2023-07-13T10:08:47;3.87;;;3.84;;
68942;SDS011;60852;52.190;4.422;2023-07-13T10:13:43;3.79;;;3.73;;
68942;SDS011;60852;52.190;4.422;2023-07-13T10:16:14;3.33;;;3.28;;
68942;SDS011;60852;52.190;4.422;2023-07-13T10:18:55;3.46;;;3.45;;
68942;SDS011;60852;52.190;4.422;2023-07-13T10:21:30;3.29;;;3.24;;
68942;SDS011;60852;52.190;4.422;2023-07-13T10:24:06;3.57;;;3.43;;
68942;SDS011;60852;52.190;4.422;2023-07-13T10:26:45;3.42;;;3.36;;
68942;SDS011;60852;52.190;4.422;2023-07-13T10:29:17;3.45;;;3.35;;
68942;SDS011;60852;52.190;4.422;2023-07-13T10:31:47;3.00;;;2.96;;
68942;SDS011;60852;52.190;4.422;2023-07-13T10:34:13;3.45;;;3.44;;
68942;SDS011;60852;52.190;4.422;2023-07-13T10:36:43;3.45;;;3.42;;
68942;SDS011;60852;52.190;4.422;2023-07-13T10:39:16;3.83;;;3.80;;
68942;SDS011;60852;52.190;4.422;2023-07-13T10:41:58;3.77;;;3.77;;
68942;SDS011;60852;52.190;4.422;2023-07-13T10:44:31;3.48;;;3.48;;
68942;SDS011;60852;52.190;4.422;2023-07-13T10:47:00;3.74;;;3.67;;
68942;SDS011;60852;52.190;4.422;2023-07-13T10:49:32;4.15;;;4.02;;
68942;SDS011;60852;52.190;4.422;2023-07-13T10:52:02;3.67;;;3.60;;
68942;SDS011;60852;52.190;4.422;2023-07-13T10:54:34;4.04;;;3.89;;
68942;SDS011;60852;52.190;4.422;2023-07-13T10:57:18;3.98;;;3.85;;
68942;SDS011;60852;52.190;4.422;2023-07-13T10:59:47;3.79;;;3.70;;
68942;SDS011;60852;52.190;4.422;2023-07-13T11:02:34;3.82;;;3.80;;
68942;SDS011;60852;52.190;4.422;2023-07-13T11:05:00;3.67;;;3.67;;
68942;SDS011;60852;52.190;4.422;2023-07-13T11:07:53;3.56;;;3.55;;
68942;SDS011;60852;52.190;4.422;2023-07-13T11:13:38;3.86;;;3.86;;
68942;SDS011;60852;52.190;4.422;2023-07-13T11:18:49;3.92;;;3.92;;
68942;SDS011;60852;52.190;4.422;2023-07-13T11:21:23;4.09;;;4.09;;
68942;SDS011;60852;52.190;4.422;2023-07-13T11:23:54;3.95;;;3.95;;
68942;SDS011;60852;52.190;4.422;2023-07-13T11:31:58;4.33;;;4.29;;
68942;SDS011;60852;52.190;4.422;2023-07-13T11:34:27;4.18;;;4.10;;
68942;SDS011;60852;52.190;4.422;2023-07-13T11:36:57;4.06;;;4.01;;
68942;SDS011;60852;52.190;4.422;2023-07-13T11:39:31;3.98;;;3.98;;
68942;SDS011;60852;52.190;4.422;2023-07-13T11:42:02;4.22;;;4.22;;
68942;SDS011;60852;52.190;4.422;2023-07-13T11:44:32;4.54;;;4.54;;
68942;SDS011;60852;52.190;4.422;2023-07-13T11:47:00;4.27;;;4.27;;
68942;SDS011;60852;52.190;4.422;2023-07-13T11:49:42;4.15;;;4.15;;
68942;SDS011;60852;52.190;4.422;2023-07-13T11:52:13;3.98;;;3.98;;
68942;SDS011;60852;52.190;4.422;2023-07-13T11:54:49;4.09;;;4.09;;
68942;SDS011;60852;52.190;4.422;2023-07-13T11:57:28;4.03;;;4.03;;
68942;SDS011;60852;52.190;4.422;2023-07-13T12:00:00;4.04;;;4.04;;
68942;SDS011;60852;52.190;4.422;2023-07-13T12:02:38;4.11;;;4.11;;
68942;SDS011;60852;52.190;4.422;2023-07-13T12:05:15;4.04;;;4.04;;
68942;SDS011;60852;52.190;4.422;2023-07-13T12:07:46;3.88;;;3.88;;
68942;SDS011;60852;52.190;4.422;2023-07-13T12:10:28;3.83;;;3.79;;
68942;SDS011;60852;52.190;4.422;2023-07-13T12:12:57;3.91;;;3.83;;
68942;SDS011;60852;52.190;4.422;2023-07-13T12:15:44;4.18;;;4.16;;
68942;SDS011;60852;52.190;4.422;2023-07-13T12:18:17;4.22;;;4.22;;
68942;SDS011;60852;52.190;4.422;2023-07-13T12:20:45;4.20;;;4.20;;
68942;SDS011;60852;52.190;4.422;2023-07-13T12:23:26;3.69;;;3.69;;
68942;SDS011;60852;52.190;4.422;2023-07-13T12:25:53;4.11;;;4.11;;
68942;SDS011;60852;52.190;4.422;2023-07-13T12:31:06;3.75;;;3.75;;
68942;SDS011;60852;52.190;4.422;2023-07-13T12:33:42;3.67;;;3.67;;
68942;SDS011;60852;52.190;4.422;2023-07-13T12:36:09;3.41;;;3.41;;
68942;SDS011;60852;52.190;4.422;2023-07-13T12:38:37;3.82;;;3.82;;
68942;SDS011;60852;52.190;4.422;2023-07-13T12:41:03;3.60;;;3.60;;
68942;SDS011;60852;52.190;4.422;2023-07-13T12:43:32;3.85;;;3.85;;
68942;SDS011;60852;52.190;4.422;2023-07-13T12:46:14;4.08;;;4.08;;
68942;SDS011;60852;52.190;4.422;2023-07-13T12:48:42;3.76;;;3.76;;
68942;SDS011;60852;52.190;4.422;2023-07-13T12:51:13;3.68;;;3.68;;
68942;SDS011;60852;52.190;4.422;2023-07-13T12:53:41;3.75;;;3.75;;
68942;SDS011;60852;52.190;4.422;2023-07-13T12:56:21;3.76;;;3.76;;
68942;SDS011;60852;52.190;4.422;2023-07-13T12:58:49;3.85;;;3.85;;
68942;SDS011;60852;52.190;4.422;2023-07-13T13:01:20;3.71;;;3.71;;
68942;SDS011;60852;52.190;4.422;2023-07-13T13:03:49;3.54;;;3.54;;
68942;SDS011;60852;52.190;4.422;2023-07-13T13:08:48;3.63;;;3.63;;
68942;SDS011;60852;52.190;4.422;2023-07-13T13:11:16;3.49;;;3.47;;
68942;SDS011;60852;52.190;4.422;2023-07-13T13:13:42;3.74;;;3.74;;
68942;SDS011;60852;52.190;4.422;2023-07-13T13:19:12;3.64;;;3.64;;
68942;SDS011;60852;52.190;4.422;2023-07-13T13:21:42;3.43;;;3.43;;
68942;SDS011;60852;52.190;4.422;2023-07-13T13:24:12;3.64;;;3.64;;
68942;SDS011;60852;52.190;4.422;2023-07-13T13:26:41;3.42;;;3.42;;
68942;SDS011;60852;52.190;4.422;2023-07-13T13:29:14;3.47;;;3.47;;
68942;SDS011;60852;52.190;4.422;2023-07-13T13:31:45;3.49;;;3.49;;
68942;SDS011;60852;52.190;4.422;2023-07-13T13:34:12;3.45;;;3.45;;
68942;SDS011;60852;52.190;4.422;2023-07-13T13:36:40;3.43;;;3.43;;
68942;SDS011;60852;52.190;4.422;2023-07-13T13:39:24;3.21;;;3.21;;
68942;SDS011;60852;52.190;4.422;2023-07-13T13:41:55;3.40;;;3.40;;
68942;SDS011;60852;52.190;4.422;2023-07-13T13:44:21;3.45;;;3.45;;
68942;SDS011;60852;52.190;4.422;2023-07-13T13:46:48;3.46;;;3.46;;
68942;SDS011;60852;52.190;4.422;2023-07-13T13:49:19;2.99;;;2.99;;
68942;SDS011;60852;52.190;4.422;2023-07-13T13:51:49;3.28;;;3.28;;
68942;SDS011;60852;52.190;4.422;2023-07-13T13:54:15;3.81;;;3.80;;
68942;SDS011;60852;52.190;4.422;2023-07-13T13:56:43;3.37;;;3.36;;
68942;SDS011;60852;52.190;4.422;2023-07-13T13:59:10;3.32;;;3.30;;
68942;SDS011;60852;52.190;4.422;2023-07-13T14:01:37;3.07;;;3.07;;
68942;SDS011;60852;52.190;4.422;2023-07-13T14:04:04;3.42;;;3.42;;
68942;SDS011;60852;52.190;4.422;2023-07-13T14:06:31;5.12;;;5.04;;
68942;SDS011;60852;52.190;4.422;2023-07-13T14:08:58;4.68;;;4.64;;
68942;SDS011;60852;52.190;4.422;2023-07-13T14:11:25;4.77;;;4.77;;
68942;SDS011;60852;52.190;4.422;2023-07-13T14:13:53;3.50;;;3.50;;
68942;SDS011;60852;52.190;4.422;2023-07-13T14:16:22;3.36;;;3.36;;
68942;SDS011;60852;52.190;4.422;2023-07-13T14:18:53;3.26;;;3.26;;
68942;SDS011;60852;52.190;4.422;2023-07-13T14:21:21;3.39;;;3.39;;
68942;SDS011;60852;52.190;4.422;2023-07-13T14:23:48;3.07;;;3.06;;
68942;SDS011;60852;52.190;4.422;2023-07-13T14:26:16;2.95;;;2.94;;
68942;SDS011;60852;52.190;4.422;2023-07-13T14:28:46;3.10;;;3.08;;
68942;SDS011;60852;52.190;4.422;2023-07-13T14:31:14;3.30;;;3.26;;
68942;SDS011;60852;52.190;4.422;2023-07-13T14:33:41;3.53;;;3.47;;
68942;SDS011;60852;52.190;4.422;2023-07-13T14:39:00;3.14;;;3.14;;
68942;SDS011;60852;52.190;4.422;2023-07-13T14:41:55;2.99;;;2.99;;
68942;SDS011;60852;52.190;4.422;2023-07-13T14:44:24;3.20;;;3.20;;
68942;SDS011;60852;52.190;4.422;2023-07-13T14:46:51;3.35;;;3.35;;
68942;SDS011;60852;52.190;4.422;2023-07-13T14:52:11;3.24;;;3.24;;
68942;SDS011;60852;52.190;4.422;2023-07-13T14:54:45;3.15;;;3.15;;
68942;SDS011;60852;52.190;4.422;2023-07-13T14:57:15;3.36;;;3.35;;
68942;SDS011;60852;52.190;4.422;2023-07-13T14:59:44;3.04;;;3.04;;
68942;SDS011;60852;52.190;4.422;2023-07-13T15:04:59;2.97;;;2.96;;
68942;SDS011;60852;52.190;4.422;2023-07-13T15:07:24;3.14;;;3.11;;
68942;SDS011;60852;52.190;4.422;2023-07-13T15:09:51;2.93;;;2.92;;
68942;SDS011;60852;52.190;4.422;2023-07-13T15:12:16;2.99;;;2.99;;
68942;SDS011;60852;52.190;4.422;2023-07-13T15:14:42;2.90;;;2.88;;
68942;SDS011;60852;52.190;4.422;2023-07-13T15:17:21;3.33;;;3.30;;
68942;SDS011;60852;52.190;4.422;2023-07-13T15:19:55;3.41;;;3.40;;
68942;SDS011;60852;52.190;4.422;2023-07-13T15:22:21;3.10;;;3.09;;
68942;SDS011;60852;52.190;4.422;2023-07-13T15:24:47;3.27;;;3.22;;
68942;SDS011;60852;52.190;4.422;2023-07-13T15:27:12;3.18;;;3.17;;
68942;SDS011;60852;52.190;4.422;2023-07-13T15:29:38;2.91;;;2.91;;
68942;SDS011;60852;52.190;4.422;2023-07-13T15:32:11;3.01;;;3.01;;
68942;SDS011;60852;52.190;4.422;2023-07-13T15:34:39;2.66;;;2.66;;
68942;SDS011;60852;52.190;4.422;2023-07-13T15:37:12;2.86;;;2.85;;
68942;SDS011;60852;52.190;4.422;2023-07-13T15:39:40;3.05;;;3.05;;
68942;SDS011;60852;52.190;4.422;2023-07-13T15:42:07;3.11;;;3.10;;
68942;SDS011;60852;52.190;4.422;2023-07-13T15:44:40;2.95;;;2.95;;